sensor_id;sensor_type;location;lat;lon;timestamp;P1;durP1;ratioP1;P2;durP2;ratioP2
22652;SDS011;11493;43.344;26.226;2023-01-09T00:01:36;18.58;;;11.13;;
22652;SDS011;11493;43.344;26.226;2023-01-09T00:04:08;16.65;;;10.38;;
22652;SDS011;11493;43.344;26.226;2023-01-09T00:06:35;19.90;;;10.85;;
22652;SDS011;11493;43.344;26.226;2023-01-09T00:09:02;20.85;;;11.50;;
22652;SDS011;11493;43.344;26.226;2023-01-09T00:11:29;18.60;;;11.15;;
22652;SDS011;11493;43.344;26.226;2023-01-09T00:14:00;16.48;;;10.75;;
22652;SDS011;11493;43.344;26.226;2023-01-09T00:16:28;20.23;;;11.23;;
22652;SDS011;11493;43.344;26.226;2023-01-09T00:18:55;13.77;;;10.60;;
22652;SDS011;11493;43.344;26.226;2023-01-09T00:21:22;21.85;;;11.70;;
22652;SDS011;11493;43.344;26.226;2023-01-09T00:23:49;15.13;;;11.60;;
22652;SDS011;11493;43.344;26.226;2023-01-09T00:26:19;27.45;;;12.48;;
22652;SDS011;11493;43.344;26.226;2023-01-09T00:28:47;21.70;;;12.18;;
22652;SDS011;11493;43.344;26.226;2023-01-09T00:31:16;18.63;;;12.15;;
22652;SDS011;11493;43.344;26.226;2023-01-09T00:34:05;16.73;;;10.50;;
22652;SDS011;11493;43.344;26.226;2023-01-09T00:36:32;18.77;;;10.82;;
22652;SDS011;11493;43.344;26.226;2023-01-09T00:38:59;14.52;;;10.20;;
22652;SDS011;11493;43.344;26.226;2023-01-09T00:41:36;12.75;;;9.07;;
22652;SDS011;11493;43.344;26.226;2023-01-09T00:44:13;13.50;;;9.18;;
22652;SDS011;11493;43.344;26.226;2023-01-09T00:49:13;12.15;;;8.20;;
22652;SDS011;11493;43.344;26.226;2023-01-09T00:51:42;15.00;;;9.20;;
22652;SDS011;11493;43.344;26.226;2023-01-09T00:54:10;15.85;;;8.68;;
22652;SDS011;11493;43.344;26.226;2023-01-09T00:56:39;18.85;;;9.88;;
22652;SDS011;11493;43.344;26.226;2023-01-09T00:59:06;15.40;;;9.93;;
22652;SDS011;11493;43.344;26.226;2023-01-09T01:01:33;16.88;;;10.32;;
22652;SDS011;11493;43.344;26.226;2023-01-09T01:04:01;19.23;;;10.50;;
22652;SDS011;11493;43.344;26.226;2023-01-09T01:06:48;17.75;;;12.13;;
22652;SDS011;11493;43.344;26.226;2023-01-09T01:09:33;28.48;;;13.40;;
22652;SDS011;11493;43.344;26.226;2023-01-09T01:12:00;22.73;;;11.93;;
22652;SDS011;11493;43.344;26.226;2023-01-09T01:14:35;25.52;;;11.82;;
22652;SDS011;11493;43.344;26.226;2023-01-09T01:17:03;20.42;;;11.07;;
22652;SDS011;11493;43.344;26.226;2023-01-09T01:19:31;17.63;;;11.88;;
22652;SDS011;11493;43.344;26.226;2023-01-09T01:21:59;21.23;;;12.45;;
22652;SDS011;11493;43.344;26.226;2023-01-09T01:24:27;17.42;;;12.10;;
22652;SDS011;11493;43.344;26.226;2023-01-09T01:26:54;19.13;;;11.57;;
22652;SDS011;11493;43.344;26.226;2023-01-09T01:33:09;15.15;;;10.02;;
22652;SDS011;11493;43.344;26.226;2023-01-09T01:35:39;17.73;;;11.80;;
22652;SDS011;11493;43.344;26.226;2023-01-09T01:38:07;17.15;;;10.85;;
22652;SDS011;11493;43.344;26.226;2023-01-09T01:40:34;22.80;;;10.88;;
22652;SDS011;11493;43.344;26.226;2023-01-09T01:43:03;14.25;;;9.23;;
22652;SDS011;11493;43.344;26.226;2023-01-09T01:45:30;19.15;;;10.77;;
22652;SDS011;11493;43.344;26.226;2023-01-09T01:48:01;29.83;;;10.77;;
22652;SDS011;11493;43.344;26.226;2023-01-09T01:53:06;15.85;;;9.48;;
22652;SDS011;11493;43.344;26.226;2023-01-09T01:55:44;19.80;;;10.43;;
22652;SDS011;11493;43.344;26.226;2023-01-09T01:58:20;17.77;;;10.43;;
22652;SDS011;11493;43.344;26.226;2023-01-09T02:00:47;19.23;;;9.82;;
22652;SDS011;11493;43.344;26.226;2023-01-09T02:07:11;20.27;;;11.88;;
22652;SDS011;11493;43.344;26.226;2023-01-09T02:09:43;16.38;;;10.07;;
22652;SDS011;11493;43.344;26.226;2023-01-09T02:12:21;20.30;;;10.48;;
22652;SDS011;11493;43.344;26.226;2023-01-09T02:15:08;16.50;;;9.82;;
22652;SDS011;11493;43.344;26.226;2023-01-09T02:26:22;14.02;;;9.35;;
22652;SDS011;11493;43.344;26.226;2023-01-09T02:31:58;19.90;;;11.95;;
22652;SDS011;11493;43.344;26.226;2023-01-09T02:34:38;19.40;;;10.85;;
22652;SDS011;11493;43.344;26.226;2023-01-09T02:37:19;17.65;;;11.90;;
22652;SDS011;11493;43.344;26.226;2023-01-09T02:39:53;18.73;;;10.15;;
22652;SDS011;11493;43.344;26.226;2023-01-09T02:42:29;22.23;;;11.65;;
22652;SDS011;11493;43.344;26.226;2023-01-09T02:44:59;17.67;;;11.57;;
22652;SDS011;11493;43.344;26.226;2023-01-09T02:49:55;21.92;;;10.85;;
22652;SDS011;11493;43.344;26.226;2023-01-09T02:52:47;12.40;;;8.73;;
22652;SDS011;11493;43.344;26.226;2023-01-09T02:55:45;29.83;;;10.98;;
22652;SDS011;11493;43.344;26.226;2023-01-09T03:17:06;25.67;;;12.65;;
22652;SDS011;11493;43.344;26.226;2023-01-09T03:19:39;29.85;;;16.33;;
22652;SDS011;11493;43.344;26.226;2023-01-09T03:22:08;27.00;;;13.90;;
22652;SDS011;11493;43.344;26.226;2023-01-09T03:24:35;23.27;;;13.65;;
22652;SDS011;11493;43.344;26.226;2023-01-09T03:27:13;21.27;;;12.10;;
22652;SDS011;11493;43.344;26.226;2023-01-09T03:29:40;20.52;;;12.50;;
22652;SDS011;11493;43.344;26.226;2023-01-09T03:32:07;23.27;;;12.90;;
22652;SDS011;11493;43.344;26.226;2023-01-09T03:34:34;17.83;;;11.82;;
22652;SDS011;11493;43.344;26.226;2023-01-09T03:37:01;20.95;;;11.05;;
22652;SDS011;11493;43.344;26.226;2023-01-09T03:43:38;28.88;;;13.82;;
22652;SDS011;11493;43.344;26.226;2023-01-09T03:46:05;21.02;;;12.48;;
22652;SDS011;11493;43.344;26.226;2023-01-09T03:48:32;18.77;;;12.05;;
22652;SDS011;11493;43.344;26.226;2023-01-09T03:51:00;16.80;;;10.27;;
22652;SDS011;11493;43.344;26.226;2023-01-09T03:53:27;14.95;;;11.15;;
22652;SDS011;11493;43.344;26.226;2023-01-09T03:55:55;17.85;;;11.18;;
22652;SDS011;11493;43.344;26.226;2023-01-09T03:58:23;17.60;;;10.95;;
22652;SDS011;11493;43.344;26.226;2023-01-09T04:00:55;21.55;;;11.65;;
22652;SDS011;11493;43.344;26.226;2023-01-09T04:07:50;21.02;;;11.23;;
22652;SDS011;11493;43.344;26.226;2023-01-09T04:10:17;20.55;;;11.85;;
22652;SDS011;11493;43.344;26.226;2023-01-09T04:12:44;26.25;;;14.13;;
22652;SDS011;11493;43.344;26.226;2023-01-09T04:15:11;25.67;;;14.20;;
22652;SDS011;11493;43.344;26.226;2023-01-09T04:17:38;27.38;;;13.93;;
22652;SDS011;11493;43.344;26.226;2023-01-09T04:20:50;25.77;;;12.95;;
22652;SDS011;11493;43.344;26.226;2023-01-09T04:23:20;26.30;;;14.02;;
22652;SDS011;11493;43.344;26.226;2023-01-09T04:25:47;30.42;;;15.13;;
22652;SDS011;11493;43.344;26.226;2023-01-09T04:28:14;30.92;;;15.27;;
22652;SDS011;11493;43.344;26.226;2023-01-09T04:30:41;26.95;;;14.77;;
22652;SDS011;11493;43.344;26.226;2023-01-09T04:33:08;27.98;;;16.60;;
22652;SDS011;11493;43.344;26.226;2023-01-09T04:35:35;33.90;;;17.73;;
22652;SDS011;11493;43.344;26.226;2023-01-09T04:38:02;30.20;;;16.45;;
22652;SDS011;11493;43.344;26.226;2023-01-09T04:40:29;28.63;;;15.27;;
22652;SDS011;11493;43.344;26.226;2023-01-09T04:42:56;31.95;;;14.98;;
22652;SDS011;11493;43.344;26.226;2023-01-09T04:45:23;30.25;;;15.05;;
22652;SDS011;11493;43.344;26.226;2023-01-09T04:47:50;27.45;;;14.05;;
22652;SDS011;11493;43.344;26.226;2023-01-09T04:50:17;27.80;;;14.65;;
22652;SDS011;11493;43.344;26.226;2023-01-09T04:52:47;27.98;;;14.43;;
22652;SDS011;11493;43.344;26.226;2023-01-09T04:57:48;28.48;;;14.55;;
22652;SDS011;11493;43.344;26.226;2023-01-09T05:00:55;28.92;;;14.75;;
22652;SDS011;11493;43.344;26.226;2023-01-09T05:03:22;30.75;;;15.18;;
22652;SDS011;11493;43.344;26.226;2023-01-09T05:05:49;31.15;;;15.65;;
22652;SDS011;11493;43.344;26.226;2023-01-09T05:08:16;49.72;;;23.48;;
22652;SDS011;11493;43.344;26.226;2023-01-09T05:10:43;38.58;;;21.42;;
22652;SDS011;11493;43.344;26.226;2023-01-09T05:13:10;30.75;;;18.40;;
22652;SDS011;11493;43.344;26.226;2023-01-09T05:15:37;29.00;;;16.85;;
22652;SDS011;11493;43.344;26.226;2023-01-09T05:18:04;37.58;;;20.55;;
22652;SDS011;11493;43.344;26.226;2023-01-09T05:20:31;37.45;;;20.40;;
22652;SDS011;11493;43.344;26.226;2023-01-09T05:22:58;35.10;;;18.67;;
22652;SDS011;11493;43.344;26.226;2023-01-09T05:25:25;35.40;;;18.02;;
22652;SDS011;11493;43.344;26.226;2023-01-09T05:27:52;41.15;;;19.83;;
22652;SDS011;11493;43.344;26.226;2023-01-09T05:30:19;44.10;;;24.73;;
22652;SDS011;11493;43.344;26.226;2023-01-09T05:32:46;54.38;;;30.65;;
22652;SDS011;11493;43.344;26.226;2023-01-09T05:35:13;50.40;;;21.80;;
22652;SDS011;11493;43.344;26.226;2023-01-09T05:37:40;49.33;;;25.10;;
22652;SDS011;11493;43.344;26.226;2023-01-09T05:40:07;49.95;;;25.55;;
22652;SDS011;11493;43.344;26.226;2023-01-09T05:42:34;46.78;;;25.20;;
22652;SDS011;11493;43.344;26.226;2023-01-09T05:45:01;56.88;;;26.13;;
22652;SDS011;11493;43.344;26.226;2023-01-09T05:47:29;72.40;;;27.75;;
22652;SDS011;11493;43.344;26.226;2023-01-09T05:49:56;57.67;;;22.98;;
22652;SDS011;11493;43.344;26.226;2023-01-09T05:52:23;50.00;;;21.63;;
22652;SDS011;11493;43.344;26.226;2023-01-09T05:54:50;55.42;;;21.50;;
22652;SDS011;11493;43.344;26.226;2023-01-09T05:57:17;63.63;;;30.00;;
22652;SDS011;11493;43.344;26.226;2023-01-09T05:59:44;72.90;;;36.08;;
22652;SDS011;11493;43.344;26.226;2023-01-09T06:02:11;61.35;;;25.48;;
22652;SDS011;11493;43.344;26.226;2023-01-09T06:04:38;89.13;;;39.65;;
22652;SDS011;11493;43.344;26.226;2023-01-09T06:07:05;83.72;;;31.58;;
22652;SDS011;11493;43.344;26.226;2023-01-09T06:09:32;86.43;;;34.65;;
22652;SDS011;11493;43.344;26.226;2023-01-09T06:12:00;92.63;;;34.08;;
22652;SDS011;11493;43.344;26.226;2023-01-09T06:14:27;182.95;;;61.47;;
22652;SDS011;11493;43.344;26.226;2023-01-09T06:16:54;255.23;;;92.93;;
22652;SDS011;11493;43.344;26.226;2023-01-09T06:19:21;259.27;;;96.07;;
22652;SDS011;11493;43.344;26.226;2023-01-09T06:21:48;202.27;;;73.65;;
22652;SDS011;11493;43.344;26.226;2023-01-09T06:24:15;202.02;;;74.90;;
22652;SDS011;11493;43.344;26.226;2023-01-09T06:26:42;246.00;;;91.47;;
22652;SDS011;11493;43.344;26.226;2023-01-09T06:29:09;256.42;;;93.68;;
22652;SDS011;11493;43.344;26.226;2023-01-09T06:31:36;212.43;;;84.40;;
22652;SDS011;11493;43.344;26.226;2023-01-09T06:34:03;198.80;;;74.75;;
22652;SDS011;11493;43.344;26.226;2023-01-09T06:36:30;184.18;;;70.18;;
22652;SDS011;11493;43.344;26.226;2023-01-09T06:38:57;140.27;;;59.90;;
22652;SDS011;11493;43.344;26.226;2023-01-09T06:41:24;158.48;;;62.67;;
22652;SDS011;11493;43.344;26.226;2023-01-09T06:43:52;133.75;;;52.28;;
22652;SDS011;11493;43.344;26.226;2023-01-09T06:46:18;100.53;;;39.20;;
22652;SDS011;11493;43.344;26.226;2023-01-09T06:48:45;112.68;;;44.78;;
22652;SDS011;11493;43.344;26.226;2023-01-09T06:51:12;108.68;;;42.30;;
22652;SDS011;11493;43.344;26.226;2023-01-09T06:53:39;94.43;;;35.88;;
22652;SDS011;11493;43.344;26.226;2023-01-09T06:56:06;68.55;;;31.35;;
22652;SDS011;11493;43.344;26.226;2023-01-09T06:58:33;69.03;;;32.78;;
22652;SDS011;11493;43.344;26.226;2023-01-09T07:01:00;70.25;;;32.17;;
22652;SDS011;11493;43.344;26.226;2023-01-09T07:03:27;77.55;;;31.40;;
22652;SDS011;11493;43.344;26.226;2023-01-09T07:05:56;77.05;;;30.77;;
22652;SDS011;11493;43.344;26.226;2023-01-09T07:08:23;64.93;;;30.00;;
22652;SDS011;11493;43.344;26.226;2023-01-09T07:10:50;69.57;;;28.33;;
22652;SDS011;11493;43.344;26.226;2023-01-09T07:13:17;52.95;;;24.55;;
22652;SDS011;11493;43.344;26.226;2023-01-09T07:15:44;46.97;;;23.95;;
22652;SDS011;11493;43.344;26.226;2023-01-09T07:18:11;58.67;;;27.98;;
22652;SDS011;11493;43.344;26.226;2023-01-09T07:20:38;76.13;;;40.28;;
22652;SDS011;11493;43.344;26.226;2023-01-09T07:23:10;90.32;;;44.92;;
22652;SDS011;11493;43.344;26.226;2023-01-09T07:25:38;101.15;;;46.30;;
22652;SDS011;11493;43.344;26.226;2023-01-09T07:28:07;86.95;;;46.10;;
22652;SDS011;11493;43.344;26.226;2023-01-09T07:30:34;61.33;;;30.73;;
22652;SDS011;11493;43.344;26.226;2023-01-09T07:33:01;58.85;;;30.75;;
22652;SDS011;11493;43.344;26.226;2023-01-09T07:35:29;66.35;;;33.60;;
22652;SDS011;11493;43.344;26.226;2023-01-09T07:37:56;68.20;;;35.55;;
22652;SDS011;11493;43.344;26.226;2023-01-09T07:40:23;65.97;;;35.10;;
22652;SDS011;11493;43.344;26.226;2023-01-09T07:42:53;72.32;;;39.70;;
22652;SDS011;11493;43.344;26.226;2023-01-09T07:45:20;53.28;;;30.73;;
22652;SDS011;11493;43.344;26.226;2023-01-09T07:47:47;71.15;;;41.83;;
22652;SDS011;11493;43.344;26.226;2023-01-09T07:50:14;72.43;;;40.95;;
22652;SDS011;11493;43.344;26.226;2023-01-09T07:52:43;73.50;;;38.33;;
22652;SDS011;11493;43.344;26.226;2023-01-09T07:55:14;60.92;;;32.03;;
22652;SDS011;11493;43.344;26.226;2023-01-09T07:57:46;60.15;;;33.03;;
22652;SDS011;11493;43.344;26.226;2023-01-09T08:00:15;62.60;;;35.75;;
22652;SDS011;11493;43.344;26.226;2023-01-09T08:02:43;55.10;;;31.63;;
22652;SDS011;11493;43.344;26.226;2023-01-09T08:05:10;82.55;;;39.33;;
22652;SDS011;11493;43.344;26.226;2023-01-09T08:07:40;103.30;;;43.08;;
22652;SDS011;11493;43.344;26.226;2023-01-09T08:10:08;105.00;;;48.28;;
22652;SDS011;11493;43.344;26.226;2023-01-09T08:12:36;105.50;;;48.13;;
22652;SDS011;11493;43.344;26.226;2023-01-09T08:15:04;92.30;;;44.28;;
22652;SDS011;11493;43.344;26.226;2023-01-09T08:17:32;90.68;;;45.58;;
22652;SDS011;11493;43.344;26.226;2023-01-09T08:19:59;81.28;;;42.20;;
22652;SDS011;11493;43.344;26.226;2023-01-09T08:22:26;84.30;;;44.55;;
22652;SDS011;11493;43.344;26.226;2023-01-09T08:24:53;49.85;;;28.15;;
22652;SDS011;11493;43.344;26.226;2023-01-09T08:27:20;48.33;;;27.30;;
22652;SDS011;11493;43.344;26.226;2023-01-09T08:29:47;43.53;;;24.40;;
22652;SDS011;11493;43.344;26.226;2023-01-09T08:32:14;45.78;;;24.35;;
22652;SDS011;11493;43.344;26.226;2023-01-09T08:34:40;52.17;;;29.02;;
22652;SDS011;11493;43.344;26.226;2023-01-09T08:37:08;54.90;;;30.15;;
22652;SDS011;11493;43.344;26.226;2023-01-09T08:39:35;52.30;;;28.98;;
22652;SDS011;11493;43.344;26.226;2023-01-09T08:42:02;52.33;;;27.70;;
22652;SDS011;11493;43.344;26.226;2023-01-09T08:44:47;62.72;;;28.63;;
22652;SDS011;11493;43.344;26.226;2023-01-09T08:47:32;79.93;;;39.53;;
22652;SDS011;11493;43.344;26.226;2023-01-09T08:49:59;63.95;;;32.42;;
22652;SDS011;11493;43.344;26.226;2023-01-09T08:52:26;51.65;;;29.55;;
22652;SDS011;11493;43.344;26.226;2023-01-09T08:54:56;71.05;;;37.50;;
22652;SDS011;11493;43.344;26.226;2023-01-09T08:57:23;58.40;;;33.72;;
22652;SDS011;11493;43.344;26.226;2023-01-09T08:59:50;63.28;;;32.70;;
22652;SDS011;11493;43.344;26.226;2023-01-09T09:02:17;62.25;;;31.90;;
22652;SDS011;11493;43.344;26.226;2023-01-09T09:04:44;46.67;;;24.05;;
22652;SDS011;11493;43.344;26.226;2023-01-09T09:07:13;51.70;;;27.08;;
22652;SDS011;11493;43.344;26.226;2023-01-09T09:09:40;68.53;;;38.55;;
22652;SDS011;11493;43.344;26.226;2023-01-09T09:12:07;53.63;;;28.17;;
22652;SDS011;11493;43.344;26.226;2023-01-09T09:14:34;44.38;;;23.27;;
22652;SDS011;11493;43.344;26.226;2023-01-09T09:17:19;17.30;;;9.60;;
22652;SDS011;11493;43.344;26.226;2023-01-09T09:19:46;6.25;;;5.55;;
22652;SDS011;11493;43.344;26.226;2023-01-09T09:22:13;6.82;;;6.03;;
22652;SDS011;11493;43.344;26.226;2023-01-09T09:24:40;17.50;;;7.53;;
22652;SDS011;11493;43.344;26.226;2023-01-09T09:27:07;11.65;;;8.02;;
22652;SDS011;11493;43.344;26.226;2023-01-09T09:29:34;16.35;;;9.20;;
22652;SDS011;11493;43.344;26.226;2023-01-09T09:32:01;7.00;;;5.82;;
22652;SDS011;11493;43.344;26.226;2023-01-09T09:34:28;15.95;;;9.85;;
22652;SDS011;11493;43.344;26.226;2023-01-09T09:36:55;12.18;;;7.82;;
22652;SDS011;11493;43.344;26.226;2023-01-09T09:39:22;20.52;;;12.82;;
22652;SDS011;11493;43.344;26.226;2023-01-09T09:56:19;10.90;;;5.10;;
22652;SDS011;11493;43.344;26.226;2023-01-09T10:01:38;11.38;;;5.90;;
22652;SDS011;11493;43.344;26.226;2023-01-09T10:04:09;11.38;;;6.15;;
22652;SDS011;11493;43.344;26.226;2023-01-09T10:06:43;23.98;;;8.15;;
22652;SDS011;11493;43.344;26.226;2023-01-09T10:09:25;23.58;;;9.32;;
22652;SDS011;11493;43.344;26.226;2023-01-09T10:14:55;19.83;;;9.65;;
22652;SDS011;11493;43.344;26.226;2023-01-09T10:17:36;16.70;;;9.55;;
22652;SDS011;11493;43.344;26.226;2023-01-09T10:28:17;18.13;;;9.73;;
22652;SDS011;11493;43.344;26.226;2023-01-09T10:39:32;7.82;;;6.03;;
22652;SDS011;11493;43.344;26.226;2023-01-09T10:44:39;16.27;;;5.95;;
22652;SDS011;11493;43.344;26.226;2023-01-09T10:47:15;10.13;;;4.68;;
22652;SDS011;11493;43.344;26.226;2023-01-09T10:49:45;7.15;;;4.95;;
22652;SDS011;11493;43.344;26.226;2023-01-09T10:52:15;19.48;;;5.22;;
22652;SDS011;11493;43.344;26.226;2023-01-09T10:54:54;7.18;;;4.32;;
22652;SDS011;11493;43.344;26.226;2023-01-09T10:57:36;10.35;;;6.18;;
22652;SDS011;11493;43.344;26.226;2023-01-09T11:00:12;12.45;;;5.13;;
22652;SDS011;11493;43.344;26.226;2023-01-09T11:02:48;5.70;;;4.50;;
22652;SDS011;11493;43.344;26.226;2023-01-09T11:05:22;5.55;;;4.35;;
22652;SDS011;11493;43.344;26.226;2023-01-09T11:07:56;14.13;;;5.15;;
22652;SDS011;11493;43.344;26.226;2023-01-09T11:10:42;11.95;;;6.45;;
22652;SDS011;11493;43.344;26.226;2023-01-09T11:15:58;12.98;;;6.60;;
22652;SDS011;11493;43.344;26.226;2023-01-09T11:18:53;7.13;;;4.65;;
22652;SDS011;11493;43.344;26.226;2023-01-09T11:21:34;27.60;;;6.18;;
22652;SDS011;11493;43.344;26.226;2023-01-09T11:26:45;5.28;;;2.60;;
22652;SDS011;11493;43.344;26.226;2023-01-09T11:29:14;5.95;;;2.40;;
22652;SDS011;11493;43.344;26.226;2023-01-09T11:31:50;8.05;;;3.05;;
22652;SDS011;11493;43.344;26.226;2023-01-09T11:34:21;6.90;;;3.15;;
22652;SDS011;11493;43.344;26.226;2023-01-09T11:36:51;5.13;;;3.33;;
22652;SDS011;11493;43.344;26.226;2023-01-09T11:39:23;5.00;;;3.60;;
22652;SDS011;11493;43.344;26.226;2023-01-09T11:42:02;4.47;;;4.03;;
22652;SDS011;11493;43.344;26.226;2023-01-09T11:44:31;5.07;;;2.78;;
22652;SDS011;11493;43.344;26.226;2023-01-09T11:46:58;6.78;;;2.85;;
22652;SDS011;11493;43.344;26.226;2023-01-09T11:49:27;3.53;;;2.30;;
22652;SDS011;11493;43.344;26.226;2023-01-09T11:54:38;8.60;;;2.50;;
22652;SDS011;11493;43.344;26.226;2023-01-09T11:57:12;6.03;;;2.65;;
22652;SDS011;11493;43.344;26.226;2023-01-09T11:59:39;6.03;;;2.90;;
22652;SDS011;11493;43.344;26.226;2023-01-09T12:04:50;6.32;;;1.98;;
22652;SDS011;11493;43.344;26.226;2023-01-09T12:07:28;5.40;;;2.35;;
22652;SDS011;11493;43.344;26.226;2023-01-09T12:12:46;9.65;;;4.03;;
22652;SDS011;11493;43.344;26.226;2023-01-09T12:46:19;9.98;;;4.07;;
22652;SDS011;11493;43.344;26.226;2023-01-09T12:56:42;8.48;;;4.20;;
22652;SDS011;11493;43.344;26.226;2023-01-09T13:01:44;48.17;;;18.38;;
22652;SDS011;11493;43.344;26.226;2023-01-09T13:04:33;13.52;;;10.00;;
22652;SDS011;11493;43.344;26.226;2023-01-09T13:07:16;12.90;;;4.38;;
22652;SDS011;11493;43.344;26.226;2023-01-09T13:09:58;7.55;;;4.22;;
22652;SDS011;11493;43.344;26.226;2023-01-09T13:12:28;7.70;;;4.70;;
22652;SDS011;11493;43.344;26.226;2023-01-09T13:15:04;9.77;;;5.50;;
22652;SDS011;11493;43.344;26.226;2023-01-09T13:17:48;9.63;;;5.82;;
22652;SDS011;11493;43.344;26.226;2023-01-09T13:20:38;7.32;;;5.00;;
22652;SDS011;11493;43.344;26.226;2023-01-09T13:23:27;6.07;;;3.33;;
22652;SDS011;11493;43.344;26.226;2023-01-09T13:26:02;5.88;;;3.47;;
22652;SDS011;11493;43.344;26.226;2023-01-09T13:34:14;20.00;;;8.20;;
22652;SDS011;11493;43.344;26.226;2023-01-09T13:36:49;29.98;;;26.08;;
22652;SDS011;11493;43.344;26.226;2023-01-09T13:39:23;45.22;;;28.13;;
22652;SDS011;11493;43.344;26.226;2023-01-09T13:41:59;52.05;;;24.98;;
22652;SDS011;11493;43.344;26.226;2023-01-09T13:44:48;3.80;;;1.95;;
22652;SDS011;11493;43.344;26.226;2023-01-09T13:47:21;8.57;;;5.03;;
22652;SDS011;11493;43.344;26.226;2023-01-09T13:59:57;14.80;;;5.15;;
22652;SDS011;11493;43.344;26.226;2023-01-09T14:07:51;6.50;;;5.80;;
22652;SDS011;11493;43.344;26.226;2023-01-09T14:10:31;12.50;;;7.82;;
22652;SDS011;11493;43.344;26.226;2023-01-09T14:13:02;7.43;;;4.60;;
22652;SDS011;11493;43.344;26.226;2023-01-09T14:15:41;6.13;;;4.38;;
22652;SDS011;11493;43.344;26.226;2023-01-09T14:18:24;9.38;;;8.32;;
22652;SDS011;11493;43.344;26.226;2023-01-09T14:26:18;42.85;;;23.83;;
22652;SDS011;11493;43.344;26.226;2023-01-09T14:28:47;10.48;;;6.70;;
22652;SDS011;11493;43.344;26.226;2023-01-09T14:31:27;9.60;;;5.45;;
22652;SDS011;11493;43.344;26.226;2023-01-09T14:36:58;5.88;;;4.85;;
22652;SDS011;11493;43.344;26.226;2023-01-09T14:39:31;10.50;;;5.60;;
22652;SDS011;11493;43.344;26.226;2023-01-09T14:41:59;12.55;;;7.20;;
22652;SDS011;11493;43.344;26.226;2023-01-09T14:47:47;23.65;;;10.25;;
22652;SDS011;11493;43.344;26.226;2023-01-09T14:50:27;38.03;;;21.48;;
22652;SDS011;11493;43.344;26.226;2023-01-09T14:56:03;36.40;;;22.70;;
22652;SDS011;11493;43.344;26.226;2023-01-09T14:58:33;23.05;;;9.40;;
22652;SDS011;11493;43.344;26.226;2023-01-09T15:03:31;6.90;;;4.10;;
22652;SDS011;11493;43.344;26.226;2023-01-09T15:06:19;11.20;;;5.47;;
22652;SDS011;11493;43.344;26.226;2023-01-09T15:08:55;28.75;;;7.85;;
22652;SDS011;11493;43.344;26.226;2023-01-09T15:11:36;11.50;;;7.50;;
22652;SDS011;11493;43.344;26.226;2023-01-09T15:14:05;6.90;;;4.72;;
22652;SDS011;11493;43.344;26.226;2023-01-09T15:16:34;25.92;;;10.70;;
22652;SDS011;11493;43.344;26.226;2023-01-09T15:19:02;19.98;;;11.98;;
22652;SDS011;11493;43.344;26.226;2023-01-09T15:21:33;21.95;;;10.32;;
22652;SDS011;11493;43.344;26.226;2023-01-09T15:24:20;15.55;;;7.43;;
22652;SDS011;11493;43.344;26.226;2023-01-09T15:26:52;9.70;;;6.93;;
22652;SDS011;11493;43.344;26.226;2023-01-09T15:29:20;13.68;;;7.13;;
22652;SDS011;11493;43.344;26.226;2023-01-09T15:31:58;5.68;;;5.07;;
22652;SDS011;11493;43.344;26.226;2023-01-09T15:34:29;6.53;;;4.20;;
22652;SDS011;11493;43.344;26.226;2023-01-09T15:36:57;7.03;;;4.20;;
22652;SDS011;11493;43.344;26.226;2023-01-09T15:39:29;26.67;;;11.15;;
22652;SDS011;11493;43.344;26.226;2023-01-09T15:41:59;13.18;;;9.82;;
22652;SDS011;11493;43.344;26.226;2023-01-09T15:44:47;11.07;;;8.70;;
22652;SDS011;11493;43.344;26.226;2023-01-09T15:47:23;14.68;;;7.57;;
22652;SDS011;11493;43.344;26.226;2023-01-09T15:49:54;12.02;;;8.40;;
22652;SDS011;11493;43.344;26.226;2023-01-09T15:52:23;17.80;;;10.07;;
22652;SDS011;11493;43.344;26.226;2023-01-09T15:54:50;21.75;;;10.52;;
22652;SDS011;11493;43.344;26.226;2023-01-09T15:59:50;41.40;;;25.27;;
22652;SDS011;11493;43.344;26.226;2023-01-09T16:02:18;26.52;;;16.02;;
22652;SDS011;11493;43.344;26.226;2023-01-09T16:05:06;24.50;;;10.85;;
22652;SDS011;11493;43.344;26.226;2023-01-09T16:07:49;23.33;;;14.60;;
22652;SDS011;11493;43.344;26.226;2023-01-09T16:10:23;26.73;;;12.18;;
22652;SDS011;11493;43.344;26.226;2023-01-09T16:12:58;33.15;;;13.05;;
22652;SDS011;11493;43.344;26.226;2023-01-09T16:15:26;21.75;;;12.00;;
22652;SDS011;11493;43.344;26.226;2023-01-09T16:20:37;67.75;;;38.42;;
22652;SDS011;11493;43.344;26.226;2023-01-09T16:23:17;57.08;;;31.00;;
22652;SDS011;11493;43.344;26.226;2023-01-09T16:25:45;70.78;;;38.15;;
22652;SDS011;11493;43.344;26.226;2023-01-09T16:28:22;44.65;;;24.02;;
22652;SDS011;11493;43.344;26.226;2023-01-09T16:31:03;44.00;;;23.15;;
22652;SDS011;11493;43.344;26.226;2023-01-09T16:33:43;29.95;;;17.92;;
22652;SDS011;11493;43.344;26.226;2023-01-09T16:36:14;35.45;;;16.02;;
22652;SDS011;11493;43.344;26.226;2023-01-09T16:41:13;47.97;;;25.42;;
22652;SDS011;11493;43.344;26.226;2023-01-09T16:44:05;62.60;;;33.85;;
22652;SDS011;11493;43.344;26.226;2023-01-09T16:46:38;66.18;;;35.47;;
22652;SDS011;11493;43.344;26.226;2023-01-09T16:49:19;56.45;;;29.63;;
22652;SDS011;11493;43.344;26.226;2023-01-09T16:51:51;44.00;;;24.40;;
22652;SDS011;11493;43.344;26.226;2023-01-09T16:54:19;38.67;;;21.30;;
22652;SDS011;11493;43.344;26.226;2023-01-09T16:56:48;29.98;;;16.30;;
22652;SDS011;11493;43.344;26.226;2023-01-09T16:59:22;80.28;;;38.72;;
22652;SDS011;11493;43.344;26.226;2023-01-09T17:01:53;82.00;;;43.93;;
22652;SDS011;11493;43.344;26.226;2023-01-09T17:04:21;51.08;;;28.92;;
22652;SDS011;11493;43.344;26.226;2023-01-09T17:06:51;41.08;;;23.52;;
22652;SDS011;11493;43.344;26.226;2023-01-09T17:09:19;32.40;;;19.52;;
22652;SDS011;11493;43.344;26.226;2023-01-09T17:11:50;30.20;;;18.00;;
22652;SDS011;11493;43.344;26.226;2023-01-09T17:14:17;31.33;;;18.27;;
22652;SDS011;11493;43.344;26.226;2023-01-09T17:16:44;37.40;;;22.58;;
22652;SDS011;11493;43.344;26.226;2023-01-09T17:19:13;46.05;;;26.65;;
22652;SDS011;11493;43.344;26.226;2023-01-09T17:21:44;51.70;;;29.70;;
22652;SDS011;11493;43.344;26.226;2023-01-09T17:24:11;55.22;;;26.45;;
22652;SDS011;11493;43.344;26.226;2023-01-09T17:26:56;48.83;;;25.77;;
22652;SDS011;11493;43.344;26.226;2023-01-09T17:29:46;58.38;;;27.92;;
22652;SDS011;11493;43.344;26.226;2023-01-09T17:32:18;53.20;;;26.48;;
22652;SDS011;11493;43.344;26.226;2023-01-09T17:34:45;58.92;;;27.95;;
22652;SDS011;11493;43.344;26.226;2023-01-09T17:37:12;40.17;;;22.65;;
22652;SDS011;11493;43.344;26.226;2023-01-09T17:39:41;56.47;;;28.15;;
22652;SDS011;11493;43.344;26.226;2023-01-09T17:42:09;62.38;;;29.15;;
22652;SDS011;11493;43.344;26.226;2023-01-09T17:44:36;58.55;;;29.67;;
22652;SDS011;11493;43.344;26.226;2023-01-09T17:47:03;70.45;;;30.98;;
22652;SDS011;11493;43.344;26.226;2023-01-09T17:49:31;63.55;;;30.85;;
22652;SDS011;11493;43.344;26.226;2023-01-09T17:51:58;72.32;;;36.85;;
22652;SDS011;11493;43.344;26.226;2023-01-09T17:54:26;59.22;;;29.95;;